createdAt,value
2022-10-22T00:00:02.167Z,0.93
2022-10-22T00:02:31.829Z,0.98
2022-10-22T00:04:58.497Z,0.90
2022-10-22T00:07:25.918Z,0.80
2022-10-22T00:09:52.613Z,0.90
2022-10-22T00:12:20.117Z,0.80
2022-10-22T00:14:46.816Z,1.05
2022-10-22T00:17:14.227Z,0.90
2022-10-22T00:19:41.120Z,0.90
2022-10-22T00:22:10.037Z,0.90
2022-10-22T00:24:38.512Z,0.90
2022-10-22T00:27:06.222Z,0.88
2022-10-22T00:29:33.061Z,0.90
2022-10-22T00:32:02.517Z,0.90
2022-10-22T00:34:29.155Z,0.90
2022-10-22T00:36:56.338Z,0.80
2022-10-22T00:39:24.660Z,1.00
2022-10-22T00:41:53.301Z,0.73
2022-10-22T00:44:57.458Z,0.80
2022-10-22T00:47:25.580Z,0.90
2022-10-22T00:49:54.081Z,0.75
2022-10-22T00:52:21.546Z,0.90
2022-10-22T00:54:48.820Z,0.70
2022-10-22T00:57:16.804Z,0.80
2022-10-22T00:59:43.605Z,0.77
2022-10-22T01:02:10.252Z,0.80
2022-10-22T01:04:37.362Z,0.90
2022-10-22T01:07:04.568Z,0.80
2022-10-22T01:09:44.899Z,1.00
2022-10-22T01:12:31.750Z,0.70
2022-10-22T01:15:40.442Z,0.80
2022-10-22T01:18:22.815Z,0.80
2022-10-22T01:21:10.356Z,0.75
2022-10-22T01:24:04.959Z,0.85
2022-10-22T01:26:43.805Z,0.80
2022-10-22T01:29:18.798Z,0.80
2022-10-22T01:31:54.336Z,0.80
2022-10-22T01:34:23.405Z,0.80
2022-10-22T01:36:51.767Z,0.85
2022-10-22T01:39:20.061Z,0.70
2022-10-22T01:41:46.880Z,0.90
2022-10-22T01:44:37.266Z,0.80
2022-10-22T01:47:32.878Z,0.82
2022-10-22T01:50:24.059Z,0.80
2022-10-22T01:53:17.286Z,0.80
2022-10-22T01:55:56.235Z,1.00
2022-10-22T01:58:43.295Z,0.90
2022-10-22T02:01:23.407Z,0.80
2022-10-22T02:04:22.219Z,0.70
2022-10-22T02:06:51.935Z,0.90
2022-10-22T02:09:21.798Z,0.70
2022-10-22T02:11:49.734Z,0.70
2022-10-22T02:14:19.277Z,0.80
2022-10-22T02:16:48.742Z,0.90
2022-10-22T02:19:24.227Z,0.90
2022-10-22T02:21:52.151Z,0.90
2022-10-22T02:24:19.873Z,0.90
2022-10-22T02:26:55.081Z,1.08
2022-10-22T02:29:34.432Z,1.00
2022-10-22T02:32:03.033Z,1.00
2022-10-22T02:34:32.212Z,0.90
2022-10-22T02:37:01.247Z,0.90
2022-10-22T02:39:28.448Z,1.05
2022-10-22T02:41:57.911Z,1.08
2022-10-22T02:44:24.943Z,0.93
2022-10-22T02:46:51.887Z,1.00
2022-10-22T02:49:18.586Z,0.80
2022-10-22T02:51:45.777Z,1.05
2022-10-22T02:54:12.402Z,1.10
2022-10-22T02:56:39.517Z,1.20
2022-10-22T02:59:06.145Z,1.10
2022-10-22T03:01:32.770Z,1.00
2022-10-22T03:03:59.455Z,0.90
2022-10-22T03:08:57.793Z,1.00
2022-10-22T03:11:24.584Z,0.90
2022-10-22T03:13:51.288Z,0.93
2022-10-22T03:16:17.913Z,0.90
2022-10-22T03:18:44.570Z,0.90
2022-10-22T03:21:26.504Z,1.00
2022-10-22T03:23:54.083Z,0.82
2022-10-22T03:26:21.527Z,0.90
2022-10-22T03:28:48.713Z,1.20
2022-10-22T03:31:15.483Z,0.95
2022-10-22T03:33:42.090Z,1.00
2022-10-22T03:36:09.450Z,1.00
2022-10-22T03:38:39.542Z,1.00
2022-10-22T03:41:06.578Z,1.00
2022-10-22T03:43:35.758Z,1.05
2022-10-22T03:46:02.431Z,1.10
2022-10-22T03:48:29.527Z,1.10
2022-10-22T03:50:56.211Z,1.10
2022-10-22T03:53:23.024Z,1.10
2022-10-22T03:55:49.705Z,1.00
2022-10-22T03:58:16.366Z,1.20
2022-10-22T04:00:43.086Z,1.00
2022-10-22T04:03:09.815Z,1.00
2022-10-22T04:05:36.336Z,1.10
2022-10-22T04:08:03.096Z,1.10
2022-10-22T04:10:29.676Z,1.10
2022-10-22T04:12:56.350Z,1.10
2022-10-22T04:15:23.573Z,1.10
2022-10-22T04:17:50.180Z,1.20
2022-10-22T04:20:16.913Z,1.00
2022-10-22T04:22:43.515Z,1.30
2022-10-22T04:25:10.072Z,1.15
2022-10-22T04:27:36.938Z,1.20
2022-10-22T04:30:06.534Z,1.20
2022-10-22T04:32:33.262Z,1.15
2022-10-22T04:34:59.861Z,1.30
2022-10-22T04:37:26.840Z,1.10
2022-10-22T04:39:53.422Z,1.00
2022-10-22T04:42:20.071Z,1.25
2022-10-22T04:44:46.666Z,1.50
2022-10-22T04:47:13.258Z,1.20
2022-10-22T04:49:40.258Z,1.58
2022-10-22T04:52:06.951Z,1.52
2022-10-22T04:54:33.609Z,1.48
2022-10-22T04:57:00.520Z,1.27
2022-10-22T04:59:27.227Z,1.33
2022-10-22T05:01:53.864Z,1.40
2022-10-22T05:04:20.476Z,1.38
2022-10-22T05:06:47.261Z,1.08
2022-10-22T05:09:19.683Z,1.35
2022-10-22T05:11:49.266Z,1.45
2022-10-22T05:14:18.580Z,1.20
2022-10-22T05:16:48.175Z,1.25
2022-10-22T05:21:44.817Z,1.40
2022-10-22T05:24:11.523Z,1.45
2022-10-22T05:26:38.220Z,1.40
2022-10-22T05:29:04.849Z,1.40
2022-10-22T05:31:31.461Z,1.52
2022-10-22T05:33:58.256Z,1.55
2022-10-22T05:36:25.154Z,1.73
2022-10-22T05:38:52.068Z,1.80
2022-10-22T05:41:21.773Z,5.97
2022-10-22T05:43:49.045Z,1.40
2022-10-22T05:46:23.031Z,1.38
2022-10-22T05:48:55.181Z,1.20
2022-10-22T05:51:22.770Z,1.45
2022-10-22T05:53:52.506Z,1.48
2022-10-22T05:56:19.174Z,1.65
2022-10-22T05:58:46.208Z,1.55
2022-10-22T06:01:16.117Z,1.50
2022-10-22T06:03:43.933Z,1.50
2022-10-22T06:06:19.538Z,1.50
2022-10-22T06:08:51.064Z,1.60
2022-10-22T06:11:19.101Z,1.58
2022-10-22T06:13:46.896Z,1.58
2022-10-22T06:16:13.967Z,1.40
2022-10-22T06:18:40.890Z,1.40
2022-10-22T06:21:10.712Z,1.52
2022-10-22T06:23:38.639Z,1.65
2022-10-22T06:26:05.967Z,1.67
2022-10-22T06:28:33.779Z,1.60
2022-10-22T06:31:01.882Z,1.63
2022-10-22T06:33:31.137Z,1.50
2022-10-22T06:36:07.976Z,1.60
2022-10-22T06:38:34.773Z,1.58
2022-10-22T06:41:11.158Z,1.77
2022-10-22T06:43:37.955Z,1.70
2022-10-22T06:46:07.470Z,1.60
2022-10-22T06:48:36.052Z,1.90
2022-10-22T06:51:12.307Z,2.20
2022-10-22T06:53:40.474Z,1.52
2022-10-22T06:56:20.982Z,1.77
2022-10-22T06:58:49.217Z,1.58
2022-10-22T07:01:17.691Z,1.63
2022-10-22T07:03:44.613Z,1.58
2022-10-22T07:06:14.924Z,1.70
2022-10-22T07:11:18.140Z,1.65
2022-10-22T07:13:54.216Z,2.10
2022-10-22T07:16:22.315Z,2.00
2022-10-22T07:18:49.035Z,1.95
2022-10-22T07:21:18.616Z,2.20
2022-10-22T07:23:45.959Z,2.03
2022-10-22T07:26:17.146Z,2.08
2022-10-22T07:28:43.914Z,1.98
2022-10-22T07:31:12.896Z,1.85
2022-10-22T07:33:42.252Z,1.70
2022-10-22T07:36:17.346Z,1.92
2022-10-22T07:38:50.007Z,2.00
2022-10-22T07:41:17.164Z,1.92
2022-10-22T07:43:46.601Z,2.13
2022-10-22T07:46:14.849Z,2.03
2022-10-22T07:48:47.887Z,2.00
2022-10-22T07:51:20.935Z,1.90
2022-10-22T07:53:48.200Z,1.90
2022-10-22T07:56:18.835Z,1.70
2022-10-22T08:01:12.487Z,1.80
2022-10-22T08:03:39.338Z,1.90
2022-10-22T08:06:06.655Z,1.83
2022-10-22T08:08:36.392Z,1.83
2022-10-22T08:11:03.410Z,2.00
2022-10-22T08:13:31.013Z,1.80
2022-10-22T08:16:01.806Z,1.85
2022-10-22T08:18:29.483Z,1.90
2022-10-22T08:20:56.647Z,2.00
2022-10-22T08:23:27.444Z,1.92
2022-10-22T08:25:55.868Z,2.00
2022-10-22T08:28:22.625Z,2.40
2022-10-22T08:30:49.382Z,2.17
2022-10-22T08:33:16.022Z,2.20
2022-10-22T08:35:47.205Z,2.30
2022-10-22T08:38:13.851Z,2.25
2022-10-22T08:40:41.138Z,2.70
2022-10-22T08:43:32.925Z,1.98
2022-10-22T08:46:05.649Z,2.10
2022-10-22T08:48:32.379Z,2.03
2022-10-22T08:50:59.242Z,1.90
2022-10-22T08:53:37.447Z,2.53
2022-10-22T08:56:04.524Z,2.30
2022-10-22T08:58:49.627Z,2.20
2022-10-22T09:01:27.367Z,2.17
2022-10-22T09:04:22.113Z,1.75
2022-10-22T09:06:52.151Z,2.15
2022-10-22T09:09:32.443Z,2.20
2022-10-22T09:12:01.349Z,2.00
2022-10-22T09:14:30.443Z,2.38
2022-10-22T09:17:13.766Z,2.67
2022-10-22T09:19:56.737Z,2.28
2022-10-22T09:22:44.981Z,2.42
2022-10-22T09:25:29.229Z,2.35
2022-10-22T09:27:58.639Z,2.65
2022-10-22T09:30:29.912Z,2.40
2022-10-22T09:33:02.875Z,2.30
2022-10-22T09:35:35.011Z,2.40
2022-10-22T09:38:07.800Z,2.42
2022-10-22T09:40:46.817Z,2.50
2022-10-22T09:43:14.871Z,2.30
2022-10-22T09:45:42.826Z,2.10
2022-10-22T09:48:20.916Z,2.35
2022-10-22T09:50:55.417Z,2.60
2022-10-22T09:53:26.618Z,2.60
2022-10-22T09:58:28.754Z,2.60
2022-10-22T10:01:00.677Z,2.70
2022-10-22T10:03:33.006Z,2.40
2022-10-22T10:06:05.769Z,2.10
2022-10-22T10:08:33.388Z,2.55
2022-10-22T10:11:11.059Z,2.92
2022-10-22T10:13:51.832Z,2.80
2022-10-22T10:16:37.357Z,2.65
2022-10-22T10:19:09.711Z,2.60
2022-10-22T10:21:47.001Z,2.78
2022-10-22T10:24:23.530Z,2.88
2022-10-22T10:27:09.606Z,2.80
2022-10-22T10:29:54.427Z,3.15
2022-10-22T10:33:04.690Z,2.60
2022-10-22T10:35:37.593Z,2.88
2022-10-22T10:38:25.917Z,2.88
2022-10-22T10:41:23.566Z,2.83
2022-10-22T10:44:14.724Z,3.00
2022-10-22T10:46:59.303Z,2.85
2022-10-22T10:49:31.379Z,2.70
2022-10-22T10:52:24.883Z,2.83
2022-10-22T10:55:03.835Z,2.53
2022-10-22T10:57:46.893Z,2.85
2022-10-22T11:00:22.580Z,2.67
2022-10-22T11:03:22.440Z,2.70
2022-10-22T11:06:02.280Z,2.97
2022-10-22T11:08:37.400Z,2.90
2022-10-22T11:11:04.303Z,2.70
2022-10-22T11:13:37.110Z,3.08
2022-10-22T11:16:19.156Z,3.30
2022-10-22T11:19:06.075Z,3.08
2022-10-22T11:21:40.354Z,3.10
2022-10-22T11:24:27.876Z,2.55
2022-10-22T11:27:30.101Z,3.10
2022-10-22T11:30:03.822Z,3.22
2022-10-22T11:32:32.983Z,3.13
2022-10-22T11:35:03.757Z,2.85
2022-10-22T11:37:34.903Z,3.00
2022-10-22T11:40:38.379Z,3.88
2022-10-22T11:43:10.175Z,3.47
2022-10-22T11:45:42.337Z,3.63
2022-10-22T11:48:11.944Z,3.10
2022-10-22T11:50:41.339Z,3.10
2022-10-22T11:53:14.200Z,3.50
2022-10-22T11:55:51.371Z,3.28
2022-10-22T11:58:44.821Z,3.40
2022-10-22T12:01:11.534Z,3.55
2022-10-22T12:03:51.221Z,3.80
2022-10-22T12:06:26.563Z,3.80
2022-10-22T12:08:59.939Z,3.90
2022-10-22T12:11:45.159Z,4.15
2022-10-22T12:14:14.999Z,3.70
2022-10-22T12:16:57.278Z,3.30
2022-10-22T12:19:31.015Z,3.35
2022-10-22T12:22:02.327Z,3.85
2022-10-22T12:24:32.906Z,3.58
2022-10-22T12:26:59.803Z,3.80
2022-10-22T12:29:26.803Z,3.60
2022-10-22T12:31:54.959Z,3.35
2022-10-22T12:34:24.779Z,3.53
2022-10-22T12:36:53.454Z,3.50
2022-10-22T12:39:25.167Z,3.30
2022-10-22T12:41:53.919Z,3.63
2022-10-22T12:44:20.767Z,3.42
2022-10-22T12:46:52.981Z,3.70
2022-10-22T12:49:40.842Z,3.45
2022-10-22T12:52:15.985Z,3.45
2022-10-22T12:54:47.798Z,3.50
2022-10-22T12:57:18.750Z,3.20
2022-10-22T12:59:49.964Z,3.53
2022-10-22T13:02:25.407Z,3.75
2022-10-22T13:05:16.880Z,3.70
2022-10-22T13:07:48.298Z,3.88
2022-10-22T13:10:24.077Z,3.47
2022-10-22T13:12:55.461Z,3.90
2022-10-22T13:15:22.738Z,3.90
2022-10-22T13:17:50.033Z,3.97
2022-10-22T13:20:22.993Z,3.63
2022-10-22T13:23:00.464Z,3.78
2022-10-22T13:25:30.832Z,3.63
2022-10-22T13:28:19.642Z,3.80
2022-10-22T13:31:17.644Z,3.60
2022-10-22T13:33:46.997Z,3.60
2022-10-22T13:36:15.763Z,3.40
2022-10-22T13:38:44.318Z,3.75
2022-10-22T13:41:28.641Z,3.60
2022-10-22T13:43:55.720Z,3.38
2022-10-22T13:46:24.339Z,3.60
2022-10-22T13:48:54.291Z,3.58
2022-10-22T13:51:24.011Z,3.60
2022-10-22T13:53:53.400Z,3.75
2022-10-22T13:56:21.861Z,4.13
2022-10-22T13:58:48.707Z,4.03
2022-10-22T14:01:28.461Z,4.05
2022-10-22T14:03:58.804Z,3.88
2022-10-22T14:06:29.966Z,3.95
2022-10-22T14:09:08.693Z,3.70
2022-10-22T14:11:35.585Z,3.97
2022-10-22T14:14:08.741Z,4.47
2022-10-22T14:16:37.844Z,4.18
2022-10-22T14:19:07.487Z,3.90
2022-10-22T14:21:37.205Z,3.67
2022-10-22T14:24:06.160Z,4.00
2022-10-22T14:26:35.263Z,3.60
2022-10-22T14:29:11.497Z,3.67
2022-10-22T14:31:44.521Z,3.70
2022-10-22T14:34:14.332Z,3.90
2022-10-22T14:36:43.575Z,3.73
2022-10-22T14:39:10.752Z,3.42
2022-10-22T14:41:37.504Z,3.40
2022-10-22T14:44:04.571Z,3.50
2022-10-22T14:46:31.318Z,3.70
2022-10-22T14:48:58.074Z,3.72
2022-10-22T14:51:24.766Z,3.83
2022-10-22T14:53:51.387Z,3.75
2022-10-22T14:56:22.607Z,3.67
2022-10-22T14:58:54.475Z,4.00
2022-10-22T15:01:21.169Z,4.25
2022-10-22T15:03:48.866Z,4.55
2022-10-22T15:06:15.747Z,4.75
2022-10-22T15:08:42.543Z,5.18
2022-10-22T15:11:12.230Z,4.93
2022-10-22T15:13:41.259Z,5.18
2022-10-22T15:16:10.357Z,4.90
2022-10-22T15:18:37.006Z,4.82
2022-10-22T15:21:06.904Z,4.75
2022-10-22T15:23:33.995Z,4.90
2022-10-22T15:26:00.657Z,4.93
2022-10-22T15:28:27.655Z,4.57
2022-10-22T15:30:56.658Z,4.32
2022-10-22T15:33:24.054Z,4.43
2022-10-22T15:35:50.836Z,4.60
2022-10-22T15:38:19.118Z,4.30
2022-10-22T15:40:46.150Z,4.20
2022-10-22T15:43:15.372Z,4.47
2022-10-22T15:45:42.026Z,4.45
2022-10-22T15:48:10.488Z,4.70
2022-10-22T15:50:39.413Z,4.30
2022-10-22T15:53:06.308Z,4.60
2022-10-22T15:55:35.750Z,4.72
2022-10-22T15:58:03.383Z,5.35
2022-10-22T16:00:30.900Z,4.60
2022-10-22T16:02:57.487Z,4.70
2022-10-22T16:05:24.259Z,4.90
2022-10-22T16:07:53.130Z,5.20
2022-10-22T16:10:19.735Z,4.70
2022-10-22T16:12:46.379Z,4.32
2022-10-22T16:15:13.072Z,4.65
2022-10-22T16:17:39.652Z,4.28
2022-10-22T16:20:06.912Z,4.30
2022-10-22T16:22:34.147Z,4.45
2022-10-22T16:25:00.769Z,4.50
2022-10-22T16:27:27.591Z,4.32
2022-10-22T16:29:54.392Z,4.22
2022-10-22T16:32:21.091Z,4.53
2022-10-22T16:34:47.895Z,4.75
2022-10-22T16:37:14.617Z,4.60
2022-10-22T16:39:41.202Z,4.93
2022-10-22T16:42:07.951Z,5.15
2022-10-22T16:44:34.705Z,5.28
2022-10-22T16:47:01.326Z,5.32
2022-10-22T16:49:28.047Z,5.15
2022-10-22T16:51:54.654Z,5.40
2022-10-22T16:54:21.956Z,5.32
2022-10-22T16:56:49.025Z,5.47
2022-10-22T16:59:15.803Z,5.28
2022-10-22T17:01:42.568Z,5.68
2022-10-22T17:04:09.765Z,5.90
2022-10-22T17:06:37.461Z,5.97
2022-10-22T17:09:04.615Z,6.28
2022-10-22T17:11:36.242Z,6.30
2022-10-22T17:14:04.939Z,5.97
2022-10-22T17:16:31.777Z,5.88
2022-10-22T17:18:58.534Z,5.90
2022-10-22T17:21:25.649Z,5.60
2022-10-22T17:23:56.904Z,5.93
2022-10-22T17:26:26.477Z,6.05
2022-10-22T17:28:53.595Z,5.95
2022-10-22T17:31:26.372Z,6.20
2022-10-22T17:33:55.514Z,5.38
2022-10-22T17:36:24.206Z,5.90
2022-10-22T17:38:58.083Z,5.72
2022-10-22T17:41:28.099Z,5.55
2022-10-22T17:43:55.830Z,5.75
2022-10-22T17:46:24.972Z,5.63
2022-10-22T17:48:59.816Z,5.70
2022-10-22T17:51:29.074Z,5.82
2022-10-22T17:53:55.732Z,5.72
2022-10-22T17:56:25.882Z,6.05
2022-10-22T17:58:53.127Z,5.65
2022-10-22T18:01:25.336Z,6.20
2022-10-22T18:03:53.260Z,6.18
2022-10-22T18:06:19.977Z,6.30
2022-10-22T18:08:46.714Z,6.07
2022-10-22T18:11:17.790Z,6.15
2022-10-22T18:13:44.999Z,6.50
2022-10-22T18:16:12.279Z,5.93
2022-10-22T18:18:39.078Z,6.57
2022-10-22T18:21:07.059Z,6.72
2022-10-22T18:23:34.904Z,6.55
2022-10-22T18:26:05.100Z,6.25
2022-10-22T18:28:32.181Z,6.05
2022-10-22T18:30:58.908Z,6.03
2022-10-22T18:33:25.824Z,6.03
2022-10-22T18:35:52.684Z,6.57
2022-10-22T18:38:21.898Z,6.35
2022-10-22T18:40:49.786Z,5.93
2022-10-22T18:43:17.472Z,5.90
2022-10-22T18:45:46.159Z,6.20
2022-10-22T18:48:14.600Z,6.35
2022-10-22T18:50:41.660Z,5.85
2022-10-22T18:53:16.831Z,6.10
2022-10-22T18:55:44.762Z,6.05
2022-10-22T18:58:11.438Z,6.30
2022-10-22T19:00:38.612Z,5.97
2022-10-22T19:03:05.555Z,5.40
2022-10-22T19:05:32.187Z,5.82
2022-10-22T19:07:59.132Z,5.80
2022-10-22T19:10:28.134Z,5.78
2022-10-22T19:12:57.057Z,5.97
2022-10-22T19:15:23.776Z,5.85
2022-10-22T19:17:52.643Z,5.63
2022-10-22T19:20:19.296Z,6.07
2022-10-22T19:22:46.000Z,6.20
2022-10-22T19:25:12.791Z,6.35
2022-10-22T19:27:40.158Z,6.40
2022-10-22T19:30:07.901Z,6.45
2022-10-22T19:32:34.952Z,5.88
2022-10-22T19:35:02.064Z,6.05
2022-10-22T19:37:28.754Z,5.60
2022-10-22T19:39:56.491Z,5.80
2022-10-22T19:42:23.210Z,5.53
2022-10-22T19:44:49.992Z,5.70
2022-10-22T19:47:20.016Z,6.00
2022-10-22T19:49:46.667Z,5.97
2022-10-22T19:52:13.417Z,6.05
2022-10-22T19:54:41.745Z,5.97
2022-10-22T19:57:08.809Z,6.53
2022-10-22T19:59:35.952Z,6.18
2022-10-22T20:02:02.754Z,6.20
2022-10-22T20:04:30.067Z,6.55
2022-10-22T20:06:56.749Z,6.10
2022-10-22T20:09:25.190Z,6.30
2022-10-22T20:11:51.816Z,6.30
2022-10-22T20:14:18.687Z,6.00
2022-10-22T20:16:45.599Z,6.07
2022-10-22T20:19:16.284Z,6.25
2022-10-22T20:21:44.007Z,6.50
2022-10-22T20:24:11.193Z,6.60
2022-10-22T20:26:37.983Z,6.40
2022-10-22T20:29:04.763Z,6.22
2022-10-22T20:31:32.994Z,6.43
2022-10-22T20:34:01.311Z,6.63
2022-10-22T20:36:30.733Z,6.90
2022-10-22T20:39:04.851Z,7.05
2022-10-22T20:41:34.029Z,7.38
2022-10-22T20:44:01.224Z,7.03
2022-10-22T20:46:30.840Z,7.10
2022-10-22T20:49:11.134Z,7.30
2022-10-22T20:51:38.395Z,7.10
2022-10-22T20:54:07.365Z,7.30
2022-10-22T20:56:36.029Z,7.88
2022-10-22T20:59:07.983Z,6.70
2022-10-22T21:01:44.479Z,7.05
2022-10-22T21:04:11.357Z,7.28
2022-10-22T21:06:39.078Z,6.22
2022-10-22T21:09:07.150Z,6.82
2022-10-22T21:11:34.703Z,6.85
2022-10-22T21:14:01.588Z,5.97
2022-10-22T21:16:30.149Z,6.35
2022-10-22T21:18:59.665Z,5.78
2022-10-22T21:21:26.880Z,5.45
2022-10-22T21:23:53.767Z,6.00
2022-10-22T21:26:21.038Z,5.85
2022-10-22T21:28:47.942Z,5.50
2022-10-22T21:31:26.247Z,5.68
2022-10-22T21:33:53.877Z,5.25
2022-10-22T21:36:23.270Z,5.68
2022-10-22T21:38:53.971Z,5.55
2022-10-22T21:41:23.241Z,4.97
2022-10-22T21:43:57.351Z,5.13
2022-10-22T21:46:26.712Z,4.60
2022-10-22T21:49:01.979Z,4.77
2022-10-22T21:51:31.333Z,4.53
2022-10-22T21:53:58.504Z,4.30
2022-10-22T21:56:32.524Z,4.78
2022-10-22T21:58:59.679Z,4.50
2022-10-22T22:01:26.721Z,4.78
2022-10-22T22:03:53.764Z,4.55
2022-10-22T22:06:24.167Z,4.57
2022-10-22T22:11:24.287Z,4.38
2022-10-22T22:13:52.313Z,4.35
2022-10-22T22:16:25.539Z,4.40
2022-10-22T22:18:56.925Z,4.03
2022-10-22T22:21:23.647Z,4.47
2022-10-22T22:23:51.062Z,4.13
2022-10-22T22:26:25.265Z,4.50
2022-10-22T22:28:55.973Z,4.53
2022-10-22T22:31:25.556Z,4.30
2022-10-22T22:34:01.350Z,4.13
2022-10-22T22:36:28.716Z,4.55
2022-10-22T22:38:56.583Z,4.00
2022-10-22T22:41:23.491Z,4.00
2022-10-22T22:43:50.169Z,4.50
2022-10-22T22:46:16.866Z,4.40
2022-10-22T22:48:43.495Z,4.35
2022-10-22T22:51:10.882Z,4.20
2022-10-22T22:53:37.607Z,4.03
2022-10-22T22:56:06.019Z,4.10
2022-10-22T22:58:32.749Z,4.25
2022-10-22T23:01:23.547Z,4.15
2022-10-22T23:03:56.370Z,4.20
2022-10-22T23:06:26.346Z,4.20
2022-10-22T23:08:54.165Z,4.40
2022-10-22T23:11:22.362Z,4.50
2022-10-22T23:13:55.420Z,5.10
2022-10-22T23:16:24.419Z,5.65
2022-10-22T23:18:53.754Z,4.63
2022-10-22T23:21:24.452Z,4.80
2022-10-22T23:23:53.968Z,4.90
2022-10-22T23:26:24.819Z,4.75
2022-10-22T23:28:51.738Z,5.07
2022-10-22T23:31:20.049Z,4.90
2022-10-22T23:33:47.496Z,5.22
2022-10-22T23:36:17.635Z,5.07
2022-10-22T23:38:44.280Z,4.45
2022-10-22T23:41:13.595Z,4.68
2022-10-22T23:43:40.335Z,4.80
2022-10-22T23:46:10.644Z,4.80
2022-10-22T23:48:41.414Z,4.80
2022-10-22T23:51:11.091Z,4.90
2022-10-22T23:53:38.502Z,4.68
2022-10-22T23:56:11.013Z,4.65
2022-10-22T23:58:37.973Z,4.32
